sensor_id;sensor_type;location;lat;lon;timestamp;temperature;humidity
8313;DHT22;4194;43.408;24.626;2023-02-28T00:00:48;6.90;99.90
8313;DHT22;4194;43.408;24.626;2023-02-28T00:03:14;7.10;99.90
8313;DHT22;4194;43.408;24.626;2023-02-28T00:08:07;8.50;99.90
8313;DHT22;4194;43.408;24.626;2023-02-28T00:10:33;7.20;99.90
8313;DHT22;4194;43.408;24.626;2023-02-28T00:13:02;6.70;99.90
8313;DHT22;4194;43.408;24.626;2023-02-28T00:15:28;8.20;99.90
8313;DHT22;4194;43.408;24.626;2023-02-28T00:17:54;6.10;99.90
8313;DHT22;4194;43.408;24.626;2023-02-28T00:20:20;6.30;99.90
8313;DHT22;4194;43.408;24.626;2023-02-28T00:22:49;6.50;99.90
8313;DHT22;4194;43.408;24.626;2023-02-28T00:25:17;6.90;99.90
8313;DHT22;4194;43.408;24.626;2023-02-28T00:27:44;8.10;99.90
8313;DHT22;4194;43.408;24.626;2023-02-28T00:30:16;8.30;99.90
8313;DHT22;4194;43.408;24.626;2023-02-28T00:32:42;7.00;99.90
8313;DHT22;4194;43.408;24.626;2023-02-28T00:35:09;8.30;99.90
8313;DHT22;4194;43.408;24.626;2023-02-28T00:37:35;8.50;99.90
8313;DHT22;4194;43.408;24.626;2023-02-28T00:40:01;7.00;99.90
8313;DHT22;4194;43.408;24.626;2023-02-28T00:42:28;7.00;99.90
8313;DHT22;4194;43.408;24.626;2023-02-28T00:44:54;7.50;99.90
8313;DHT22;4194;43.408;24.626;2023-02-28T00:47:19;7.10;99.90
8313;DHT22;4194;43.408;24.626;2023-02-28T00:49:45;6.40;99.90
8313;DHT22;4194;43.408;24.626;2023-02-28T00:52:11;8.40;99.90
8313;DHT22;4194;43.408;24.626;2023-02-28T00:54:36;8.30;99.90
8313;DHT22;4194;43.408;24.626;2023-02-28T00:57:02;7.10;99.90
8313;DHT22;4194;43.408;24.626;2023-02-28T00:59:28;6.80;99.90
8313;DHT22;4194;43.408;24.626;2023-02-28T01:01:53;8.30;99.90
8313;DHT22;4194;43.408;24.626;2023-02-28T01:04:19;7.40;99.90
8313;DHT22;4194;43.408;24.626;2023-02-28T01:06:45;8.50;99.90
8313;DHT22;4194;43.408;24.626;2023-02-28T01:09:11;7.00;99.90
8313;DHT22;4194;43.408;24.626;2023-02-28T01:11:37;6.20;99.90
8313;DHT22;4194;43.408;24.626;2023-02-28T01:16:30;8.30;99.90
8313;DHT22;4194;43.408;24.626;2023-02-28T01:18:56;8.50;99.90
8313;DHT22;4194;43.408;24.626;2023-02-28T01:21:23;7.10;99.90
8313;DHT22;4194;43.408;24.626;2023-02-28T01:23:49;7.10;99.90
8313;DHT22;4194;43.408;24.626;2023-02-28T01:28:46;6.70;99.90
8313;DHT22;4194;43.408;24.626;2023-02-28T01:31:12;8.40;99.90
8313;DHT22;4194;43.408;24.626;2023-02-28T01:33:38;6.40;99.90
8313;DHT22;4194;43.408;24.626;2023-02-28T01:38:37;7.20;99.90
8313;DHT22;4194;43.408;24.626;2023-02-28T01:43:53;6.90;99.90
8313;DHT22;4194;43.408;24.626;2023-02-28T01:46:16;8.20;99.90
8313;DHT22;4194;43.408;24.626;2023-02-28T01:48:46;8.30;99.90
8313;DHT22;4194;43.408;24.626;2023-02-28T01:51:18;6.90;99.90
8313;DHT22;4194;43.408;24.626;2023-02-28T01:53:51;6.60;99.90
8313;DHT22;4194;43.408;24.626;2023-02-28T01:56:22;7.00;99.90
8313;DHT22;4194;43.408;24.626;2023-02-28T01:58:51;7.10;99.90
8313;DHT22;4194;43.408;24.626;2023-02-28T02:06:25;6.70;99.90
8313;DHT22;4194;43.408;24.626;2023-02-28T02:08:53;8.40;99.90
8313;DHT22;4194;43.408;24.626;2023-02-28T02:11:20;6.60;99.90
8313;DHT22;4194;43.408;24.626;2023-02-28T02:34:49;6.30;99.90
8313;DHT22;4194;43.408;24.626;2023-02-28T02:40:17;6.30;99.90
8313;DHT22;4194;43.408;24.626;2023-02-28T02:45:26;6.30;99.90
8313;DHT22;4194;43.408;24.626;2023-02-28T02:47:56;7.30;99.90
8313;DHT22;4194;43.408;24.626;2023-02-28T02:50:29;7.20;99.90
8313;DHT22;4194;43.408;24.626;2023-02-28T02:52:58;5.90;99.90
8313;DHT22;4194;43.408;24.626;2023-02-28T02:55:26;6.40;99.90
8313;DHT22;4194;43.408;24.626;2023-02-28T02:58:00;6.60;99.90
8313;DHT22;4194;43.408;24.626;2023-02-28T03:02:57;5.80;99.90
8313;DHT22;4194;43.408;24.626;2023-02-28T03:05:26;6.30;99.90
8313;DHT22;4194;43.408;24.626;2023-02-28T03:07:53;5.60;99.90
8313;DHT22;4194;43.408;24.626;2023-02-28T03:10:33;6.20;99.90
8313;DHT22;4194;43.408;24.626;2023-02-28T03:18:48;5.40;99.90
8313;DHT22;4194;43.408;24.626;2023-02-28T03:21:40;5.60;99.90
8313;DHT22;4194;43.408;24.626;2023-02-28T03:24:14;5.20;99.90
8313;DHT22;4194;43.408;24.626;2023-02-28T03:26:46;5.50;99.90
8313;DHT22;4194;43.408;24.626;2023-02-28T03:29:24;5.90;99.90
8313;DHT22;4194;43.408;24.626;2023-02-28T03:42:35;5.90;99.90
8313;DHT22;4194;43.408;24.626;2023-02-28T03:50:36;4.90;99.90
8313;DHT22;4194;43.408;24.626;2023-02-28T03:55:56;6.00;99.90
8313;DHT22;4194;43.408;24.626;2023-02-28T04:01:28;5.70;99.90
8313;DHT22;4194;43.408;24.626;2023-02-28T04:03:55;4.90;99.90
8313;DHT22;4194;43.408;24.626;2023-02-28T04:06:23;5.80;99.90
8313;DHT22;4194;43.408;24.626;2023-02-28T04:08:49;5.00;99.90
8313;DHT22;4194;43.408;24.626;2023-02-28T04:11:27;6.00;99.90
8313;DHT22;4194;43.408;24.626;2023-02-28T04:13:55;5.20;99.90
8313;DHT22;4194;43.408;24.626;2023-02-28T04:16:21;5.90;99.90
8313;DHT22;4194;43.408;24.626;2023-02-28T04:18:46;4.30;99.90
8313;DHT22;4194;43.408;24.626;2023-02-28T04:23:39;4.40;99.90
8313;DHT22;4194;43.408;24.626;2023-02-28T04:26:05;6.00;99.90
8313;DHT22;4194;43.408;24.626;2023-02-28T04:28:32;5.70;99.90
8313;DHT22;4194;43.408;24.626;2023-02-28T04:30:59;4.40;99.90
8313;DHT22;4194;43.408;24.626;2023-02-28T04:33:25;5.20;99.90
8313;DHT22;4194;43.408;24.626;2023-02-28T04:36:07;4.70;99.90
8313;DHT22;4194;43.408;24.626;2023-02-28T04:38:37;4.80;99.90
8313;DHT22;4194;43.408;24.626;2023-02-28T04:41:04;4.70;99.90
8313;DHT22;4194;43.408;24.626;2023-02-28T04:43:31;4.60;99.90
8313;DHT22;4194;43.408;24.626;2023-02-28T04:48:25;4.20;99.90
8313;DHT22;4194;43.408;24.626;2023-02-28T04:50:51;5.40;99.90
8313;DHT22;4194;43.408;24.626;2023-02-28T04:53:18;3.80;99.90
8313;DHT22;4194;43.408;24.626;2023-02-28T04:58:10;4.00;99.90
8313;DHT22;4194;43.408;24.626;2023-02-28T05:00:35;5.40;99.90
8313;DHT22;4194;43.408;24.626;2023-02-28T05:03:01;4.30;99.90
8313;DHT22;4194;43.408;24.626;2023-02-28T05:05:27;5.10;99.90
8313;DHT22;4194;43.408;24.626;2023-02-28T05:07:53;4.50;99.90
8313;DHT22;4194;43.408;24.626;2023-02-28T05:12:47;4.70;99.90
8313;DHT22;4194;43.408;24.626;2023-02-28T05:15:15;5.90;99.90
8313;DHT22;4194;43.408;24.626;2023-02-28T05:17:41;5.30;99.90
8313;DHT22;4194;43.408;24.626;2023-02-28T05:20:08;4.90;99.90
8313;DHT22;4194;43.408;24.626;2023-02-28T05:22:37;5.30;99.90
8313;DHT22;4194;43.408;24.626;2023-02-28T05:25:03;4.20;99.90
8313;DHT22;4194;43.408;24.626;2023-02-28T05:27:30;4.50;99.90
8313;DHT22;4194;43.408;24.626;2023-02-28T05:32:22;5.70;99.90
8313;DHT22;4194;43.408;24.626;2023-02-28T05:34:48;5.70;99.90
8313;DHT22;4194;43.408;24.626;2023-02-28T05:37:14;4.50;99.90
8313;DHT22;4194;43.408;24.626;2023-02-28T05:39:41;4.40;99.90
8313;DHT22;4194;43.408;24.626;2023-02-28T05:42:07;4.90;99.90
8313;DHT22;4194;43.408;24.626;2023-02-28T05:49:25;4.50;99.90
8313;DHT22;4194;43.408;24.626;2023-02-28T05:51:51;6.00;99.90
8313;DHT22;4194;43.408;24.626;2023-02-28T05:54:17;3.70;99.90
8313;DHT22;4194;43.408;24.626;2023-02-28T05:59:11;4.60;99.90
8313;DHT22;4194;43.408;24.626;2023-02-28T06:01:45;4.50;99.90
8313;DHT22;4194;43.408;24.626;2023-02-28T06:06:43;5.60;99.90
8313;DHT22;4194;43.408;24.626;2023-02-28T06:09:10;4.50;99.90
8313;DHT22;4194;43.408;24.626;2023-02-28T06:11:35;4.30;99.90
8313;DHT22;4194;43.408;24.626;2023-02-28T06:14:02;4.40;99.90
8313;DHT22;4194;43.408;24.626;2023-02-28T06:18:57;3.90;99.90
8313;DHT22;4194;43.408;24.626;2023-02-28T06:23:49;3.90;99.90
8313;DHT22;4194;43.408;24.626;2023-02-28T06:26:15;6.20;99.90
8313;DHT22;4194;43.408;24.626;2023-02-28T06:28:41;6.20;99.90
8313;DHT22;4194;43.408;24.626;2023-02-28T06:31:11;6.20;99.90
8313;DHT22;4194;43.408;24.626;2023-02-28T06:33:38;5.70;99.90
8313;DHT22;4194;43.408;24.626;2023-02-28T06:38:32;5.80;99.90
8313;DHT22;4194;43.408;24.626;2023-02-28T06:40:59;5.30;99.90
8313;DHT22;4194;43.408;24.626;2023-02-28T06:43:27;6.10;99.90
8313;DHT22;4194;43.408;24.626;2023-02-28T06:50:49;5.90;99.90
8313;DHT22;4194;43.408;24.626;2023-02-28T06:53:15;5.90;99.90
8313;DHT22;4194;43.408;24.626;2023-02-28T06:55:41;3.80;99.90
8313;DHT22;4194;43.408;24.626;2023-02-28T06:58:07;4.60;99.90
8313;DHT22;4194;43.408;24.626;2023-02-28T07:03:12;5.40;99.90
8313;DHT22;4194;43.408;24.626;2023-02-28T07:05:38;4.60;99.90
8313;DHT22;4194;43.408;24.626;2023-02-28T07:08:05;4.20;99.90
8313;DHT22;4194;43.408;24.626;2023-02-28T07:10:36;4.70;99.90
8313;DHT22;4194;43.408;24.626;2023-02-28T07:13:04;6.00;99.90
8313;DHT22;4194;43.408;24.626;2023-02-28T07:20:23;6.50;99.90
8313;DHT22;4194;43.408;24.626;2023-02-28T07:22:49;4.80;99.90
8313;DHT22;4194;43.408;24.626;2023-02-28T07:27:48;5.40;99.90
8313;DHT22;4194;43.408;24.626;2023-02-28T07:30:14;5.50;99.90
8313;DHT22;4194;43.408;24.626;2023-02-28T07:32:41;5.10;99.90
8313;DHT22;4194;43.408;24.626;2023-02-28T07:35:07;5.90;99.90
8313;DHT22;4194;43.408;24.626;2023-02-28T07:37:32;4.90;99.90
8313;DHT22;4194;43.408;24.626;2023-02-28T07:40:03;4.20;99.90
8313;DHT22;4194;43.408;24.626;2023-02-28T07:44:57;4.30;99.90
8313;DHT22;4194;43.408;24.626;2023-02-28T07:49:50;5.20;99.90
8313;DHT22;4194;43.408;24.626;2023-02-28T07:54:42;6.00;99.90
8313;DHT22;4194;43.408;24.626;2023-02-28T07:57:08;4.60;99.90
8313;DHT22;4194;43.408;24.626;2023-02-28T07:59:33;5.90;99.90
8313;DHT22;4194;43.408;24.626;2023-02-28T08:04:25;5.60;99.90
8313;DHT22;4194;43.408;24.626;2023-02-28T08:06:51;4.80;99.90
8313;DHT22;4194;43.408;24.626;2023-02-28T08:09:21;4.70;99.90
8313;DHT22;4194;43.408;24.626;2023-02-28T08:11:47;6.10;99.90
8313;DHT22;4194;43.408;24.626;2023-02-28T08:19:05;5.80;99.90
8313;DHT22;4194;43.408;24.626;2023-02-28T08:21:30;5.90;99.90
8313;DHT22;4194;43.408;24.626;2023-02-28T08:23:56;5.80;99.90
8313;DHT22;4194;43.408;24.626;2023-02-28T08:26:22;5.30;99.90
8313;DHT22;4194;43.408;24.626;2023-02-28T08:28:48;5.00;99.90
8313;DHT22;4194;43.408;24.626;2023-02-28T08:31:15;5.30;99.90
8313;DHT22;4194;43.408;24.626;2023-02-28T08:33:41;4.90;99.90
8313;DHT22;4194;43.408;24.626;2023-02-28T08:38:36;5.50;99.90
8313;DHT22;4194;43.408;24.626;2023-02-28T08:43:33;5.60;99.90
8313;DHT22;4194;43.408;24.626;2023-02-28T08:45:59;6.00;99.90
8313;DHT22;4194;43.408;24.626;2023-02-28T08:48:26;5.80;99.90
8313;DHT22;4194;43.408;24.626;2023-02-28T08:51:05;6.90;99.90
8313;DHT22;4194;43.408;24.626;2023-02-28T08:55:58;5.80;99.90
8313;DHT22;4194;43.408;24.626;2023-02-28T08:58:24;5.30;99.90
8313;DHT22;4194;43.408;24.626;2023-02-28T09:03:16;5.80;99.90
8313;DHT22;4194;43.408;24.626;2023-02-28T09:05:55;5.20;99.90
8313;DHT22;4194;43.408;24.626;2023-02-28T09:08:22;5.80;99.90
8313;DHT22;4194;43.408;24.626;2023-02-28T09:15:40;5.40;99.90
8313;DHT22;4194;43.408;24.626;2023-02-28T09:18:06;5.50;99.90
8313;DHT22;4194;43.408;24.626;2023-02-28T09:22:57;5.70;99.90
8313;DHT22;4194;43.408;24.626;2023-02-28T09:25:23;5.70;99.90
8313;DHT22;4194;43.408;24.626;2023-02-28T09:27:49;4.50;99.90
8313;DHT22;4194;43.408;24.626;2023-02-28T09:30:14;5.60;99.90
8313;DHT22;4194;43.408;24.626;2023-02-28T09:32:40;6.10;99.90
8313;DHT22;4194;43.408;24.626;2023-02-28T09:35:06;6.30;99.90
8313;DHT22;4194;43.408;24.626;2023-02-28T09:37:32;5.60;99.90
8313;DHT22;4194;43.408;24.626;2023-02-28T09:39:58;6.70;99.90
8313;DHT22;4194;43.408;24.626;2023-02-28T09:42:31;6.60;99.90
8313;DHT22;4194;43.408;24.626;2023-02-28T09:44:58;5.60;99.90
8313;DHT22;4194;43.408;24.626;2023-02-28T09:47:45;5.50;99.90
8313;DHT22;4194;43.408;24.626;2023-02-28T09:52:49;6.20;99.90
8313;DHT22;4194;43.408;24.626;2023-02-28T09:55:20;5.80;99.90
8313;DHT22;4194;43.408;24.626;2023-02-28T09:57:49;5.30;99.90
8313;DHT22;4194;43.408;24.626;2023-02-28T10:06:05;6.30;99.90
8313;DHT22;4194;43.408;24.626;2023-02-28T10:08:27;6.20;99.90
8313;DHT22;4194;43.408;24.626;2023-02-28T10:11:00;7.00;99.90
8313;DHT22;4194;43.408;24.626;2023-02-28T10:16:03;5.30;99.90
8313;DHT22;4194;43.408;24.626;2023-02-28T10:18:42;6.20;99.90
8313;DHT22;4194;43.408;24.626;2023-02-28T10:21:21;6.20;99.90
8313;DHT22;4194;43.408;24.626;2023-02-28T10:23:49;5.10;99.90
8313;DHT22;4194;43.408;24.626;2023-02-28T10:26:17;5.60;99.90
8313;DHT22;4194;43.408;24.626;2023-02-28T10:28:43;6.10;99.90
8313;DHT22;4194;43.408;24.626;2023-02-28T10:31:17;5.40;99.90
8313;DHT22;4194;43.408;24.626;2023-02-28T10:33:43;4.70;99.90
8313;DHT22;4194;43.408;24.626;2023-02-28T10:36:15;7.10;99.90
8313;DHT22;4194;43.408;24.626;2023-02-28T10:38:43;6.90;99.90
8313;DHT22;4194;43.408;24.626;2023-02-28T10:41:42;6.30;99.90
8313;DHT22;4194;43.408;24.626;2023-02-28T10:49:21;6.10;99.90
8313;DHT22;4194;43.408;24.626;2023-02-28T10:51:51;6.50;99.90
8313;DHT22;4194;43.408;24.626;2023-02-28T10:54:31;6.20;99.90
8313;DHT22;4194;43.408;24.626;2023-02-28T10:57:19;6.60;99.90
8313;DHT22;4194;43.408;24.626;2023-02-28T10:59:45;7.00;99.90
8313;DHT22;4194;43.408;24.626;2023-02-28T11:02:35;6.20;99.90
8313;DHT22;4194;43.408;24.626;2023-02-28T11:05:02;6.80;99.90
8313;DHT22;4194;43.408;24.626;2023-02-28T11:07:28;7.30;99.90
8313;DHT22;4194;43.408;24.626;2023-02-28T11:09:55;6.30;99.90
8313;DHT22;4194;43.408;24.626;2023-02-28T11:12:23;6.20;99.90
8313;DHT22;4194;43.408;24.626;2023-02-28T11:15:06;6.30;99.90
8313;DHT22;4194;43.408;24.626;2023-02-28T11:17:32;6.90;99.90
8313;DHT22;4194;43.408;24.626;2023-02-28T11:20:04;6.40;99.90
8313;DHT22;4194;43.408;24.626;2023-02-28T11:22:36;5.60;99.90
8313;DHT22;4194;43.408;24.626;2023-02-28T11:30:03;6.50;99.90
8313;DHT22;4194;43.408;24.626;2023-02-28T11:37:37;6.40;99.90
8313;DHT22;4194;43.408;24.626;2023-02-28T11:48:20;6.30;99.90
8313;DHT22;4194;43.408;24.626;2023-02-28T11:51:08;6.30;99.90
8313;DHT22;4194;43.408;24.626;2023-02-28T12:07:02;6.90;99.90
8313;DHT22;4194;43.408;24.626;2023-02-28T12:12:30;6.40;99.90
8313;DHT22;4194;43.408;24.626;2023-02-28T12:28:13;6.60;99.90
8313;DHT22;4194;43.408;24.626;2023-02-28T12:31:01;6.20;99.90
8313;DHT22;4194;43.408;24.626;2023-02-28T12:33:35;6.20;99.90
8313;DHT22;4194;43.408;24.626;2023-02-28T12:36:08;6.10;99.90
8313;DHT22;4194;43.408;24.626;2023-02-28T12:38:43;6.00;99.90
8313;DHT22;4194;43.408;24.626;2023-02-28T12:44:00;6.20;99.90
8313;DHT22;4194;43.408;24.626;2023-02-28T12:46:45;6.10;99.90
8313;DHT22;4194;43.408;24.626;2023-02-28T12:49:49;5.80;99.90
8313;DHT22;4194;43.408;24.626;2023-02-28T12:52:20;6.60;99.90
8313;DHT22;4194;43.408;24.626;2023-02-28T13:22:00;6.40;99.90
8313;DHT22;4194;43.408;24.626;2023-02-28T13:29:50;5.70;99.90
8313;DHT22;4194;43.408;24.626;2023-02-28T13:47:44;5.90;99.90
8313;DHT22;4194;43.408;24.626;2023-02-28T13:53:01;5.80;99.90
8313;DHT22;4194;43.408;24.626;2023-02-28T14:07:01;5.80;99.90
8313;DHT22;4194;43.408;24.626;2023-02-28T14:09:35;5.80;99.90
8313;DHT22;4194;43.408;24.626;2023-02-28T14:19:44;6.00;99.90
8313;DHT22;4194;43.408;24.626;2023-02-28T14:31:10;6.60;99.90
8313;DHT22;4194;43.408;24.626;2023-02-28T14:36:40;5.60;99.90
8313;DHT22;4194;43.408;24.626;2023-02-28T14:39:14;5.90;99.90
8313;DHT22;4194;43.408;24.626;2023-02-28T14:41:45;6.70;99.90
8313;DHT22;4194;43.408;24.626;2023-02-28T14:44:22;6.30;99.90
8313;DHT22;4194;43.408;24.626;2023-02-28T14:47:00;5.80;99.90
8313;DHT22;4194;43.408;24.626;2023-02-28T14:49:41;6.50;99.90
8313;DHT22;4194;43.408;24.626;2023-02-28T14:54:42;5.80;99.90
8313;DHT22;4194;43.408;24.626;2023-02-28T14:57:39;6.20;99.90
8313;DHT22;4194;43.408;24.626;2023-02-28T15:02:39;6.10;99.90
8313;DHT22;4194;43.408;24.626;2023-02-28T15:07:42;5.20;99.90
8313;DHT22;4194;43.408;24.626;2023-02-28T15:12:58;5.30;99.90
8313;DHT22;4194;43.408;24.626;2023-02-28T15:26:01;6.70;99.90
8313;DHT22;4194;43.408;24.626;2023-02-28T15:28:28;5.80;99.90
8313;DHT22;4194;43.408;24.626;2023-02-28T15:30:59;5.30;99.90
8313;DHT22;4194;43.408;24.626;2023-02-28T15:33:28;5.20;99.90
8313;DHT22;4194;43.408;24.626;2023-02-28T15:43:30;6.10;99.90
8313;DHT22;4194;43.408;24.626;2023-02-28T15:46:02;5.40;99.90
8313;DHT22;4194;43.408;24.626;2023-02-28T15:48:44;5.50;99.90
8313;DHT22;4194;43.408;24.626;2023-02-28T15:51:18;5.10;99.90
8313;DHT22;4194;43.408;24.626;2023-02-28T15:53:49;5.40;99.90
8313;DHT22;4194;43.408;24.626;2023-02-28T15:58:54;7.00;99.90
8313;DHT22;4194;43.408;24.626;2023-02-28T16:01:25;5.40;99.90
8313;DHT22;4194;43.408;24.626;2023-02-28T16:03:54;5.40;99.90
8313;DHT22;4194;43.408;24.626;2023-02-28T16:06:41;5.60;99.90
8313;DHT22;4194;43.408;24.626;2023-02-28T16:09:11;6.10;99.90
8313;DHT22;4194;43.408;24.626;2023-02-28T16:11:40;5.90;99.90
8313;DHT22;4194;43.408;24.626;2023-02-28T16:16:42;5.70;99.90
8313;DHT22;4194;43.408;24.626;2023-02-28T16:19:09;4.60;99.90
8313;DHT22;4194;43.408;24.626;2023-02-28T16:21:35;5.00;99.90
8313;DHT22;4194;43.408;24.626;2023-02-28T16:24:00;5.60;99.90
8313;DHT22;4194;43.408;24.626;2023-02-28T16:26:26;6.10;99.90
8313;DHT22;4194;43.408;24.626;2023-02-28T16:28:54;6.10;99.90
8313;DHT22;4194;43.408;24.626;2023-02-28T16:31:20;4.70;99.90
8313;DHT22;4194;43.408;24.626;2023-02-28T16:33:46;5.40;99.90
8313;DHT22;4194;43.408;24.626;2023-02-28T16:38:54;5.30;99.90
8313;DHT22;4194;43.408;24.626;2023-02-28T16:41:22;6.90;99.90
8313;DHT22;4194;43.408;24.626;2023-02-28T16:43:51;5.80;99.90
8313;DHT22;4194;43.408;24.626;2023-02-28T16:48:44;5.60;99.90
8313;DHT22;4194;43.408;24.626;2023-02-28T16:51:15;5.80;99.90
8313;DHT22;4194;43.408;24.626;2023-02-28T16:53:42;5.90;99.90
8313;DHT22;4194;43.408;24.626;2023-02-28T16:56:19;5.00;99.90
8313;DHT22;4194;43.408;24.626;2023-02-28T17:01:13;6.00;99.90
8313;DHT22;4194;43.408;24.626;2023-02-28T17:03:39;6.10;99.90
8313;DHT22;4194;43.408;24.626;2023-02-28T17:06:08;6.00;99.90
8313;DHT22;4194;43.408;24.626;2023-02-28T17:08:41;5.50;99.90
8313;DHT22;4194;43.408;24.626;2023-02-28T17:11:07;4.40;99.90
8313;DHT22;4194;43.408;24.626;2023-02-28T17:13:33;5.50;99.90
8313;DHT22;4194;43.408;24.626;2023-02-28T17:16:00;5.90;99.90
8313;DHT22;4194;43.408;24.626;2023-02-28T17:18:26;6.10;99.90
8313;DHT22;4194;43.408;24.626;2023-02-28T17:23:20;6.40;99.90
8313;DHT22;4194;43.408;24.626;2023-02-28T17:25:47;6.60;99.90
8313;DHT22;4194;43.408;24.626;2023-02-28T17:30:45;6.10;99.90
8313;DHT22;4194;43.408;24.626;2023-02-28T17:35:39;6.10;99.90
8313;DHT22;4194;43.408;24.626;2023-02-28T17:40:34;6.00;99.90
8313;DHT22;4194;43.408;24.626;2023-02-28T17:43:01;4.90;99.90
8313;DHT22;4194;43.408;24.626;2023-02-28T17:45:27;6.00;99.90
8313;DHT22;4194;43.408;24.626;2023-02-28T17:47:53;5.90;99.90
8313;DHT22;4194;43.408;24.626;2023-02-28T17:52:46;6.30;99.90
8313;DHT22;4194;43.408;24.626;2023-02-28T17:55:12;5.90;99.90
8313;DHT22;4194;43.408;24.626;2023-02-28T17:57:38;6.10;99.90
8313;DHT22;4194;43.408;24.626;2023-02-28T18:00:05;5.60;99.90
8313;DHT22;4194;43.408;24.626;2023-02-28T18:02:32;6.00;99.90
8313;DHT22;4194;43.408;24.626;2023-02-28T18:04:58;5.20;99.90
8313;DHT22;4194;43.408;24.626;2023-02-28T18:07:24;5.30;99.90
8313;DHT22;4194;43.408;24.626;2023-02-28T18:09:50;5.50;99.90
8313;DHT22;4194;43.408;24.626;2023-02-28T18:12:16;5.60;99.90
8313;DHT22;4194;43.408;24.626;2023-02-28T18:14:41;4.70;99.90
8313;DHT22;4194;43.408;24.626;2023-02-28T18:19:37;5.60;99.90
8313;DHT22;4194;43.408;24.626;2023-02-28T18:26:58;5.00;99.90
8313;DHT22;4194;43.408;24.626;2023-02-28T18:29:26;5.30;99.90
8313;DHT22;4194;43.408;24.626;2023-02-28T18:34:18;5.70;99.90
8313;DHT22;4194;43.408;24.626;2023-02-28T18:36:45;6.10;99.90
8313;DHT22;4194;43.408;24.626;2023-02-28T18:41:39;4.80;99.90
8313;DHT22;4194;43.408;24.626;2023-02-28T18:44:05;4.90;99.90
8313;DHT22;4194;43.408;24.626;2023-02-28T18:46:31;4.60;99.90
8313;DHT22;4194;43.408;24.626;2023-02-28T18:48:56;5.10;99.90
8313;DHT22;4194;43.408;24.626;2023-02-28T18:51:25;5.30;99.90
8313;DHT22;4194;43.408;24.626;2023-02-28T18:53:52;7.00;99.90
8313;DHT22;4194;43.408;24.626;2023-02-28T18:56:19;5.40;99.90
8313;DHT22;4194;43.408;24.626;2023-02-28T18:58:45;4.70;99.90
8313;DHT22;4194;43.408;24.626;2023-02-28T19:01:27;5.40;99.90
8313;DHT22;4194;43.408;24.626;2023-02-28T19:06:28;4.70;99.90
8313;DHT22;4194;43.408;24.626;2023-02-28T19:08:55;6.00;99.90
8313;DHT22;4194;43.408;24.626;2023-02-28T19:11:47;6.50;99.90
8313;DHT22;4194;43.408;24.626;2023-02-28T19:14:13;5.40;99.90
8313;DHT22;4194;43.408;24.626;2023-02-28T19:19:04;6.10;99.90
8313;DHT22;4194;43.408;24.626;2023-02-28T19:21:30;5.30;99.90
8313;DHT22;4194;43.408;24.626;2023-02-28T19:26:24;5.40;99.90
8313;DHT22;4194;43.408;24.626;2023-02-28T19:28:50;5.10;99.90
8313;DHT22;4194;43.408;24.626;2023-02-28T19:31:21;5.60;99.90
8313;DHT22;4194;43.408;24.626;2023-02-28T19:33:47;4.80;99.90
8313;DHT22;4194;43.408;24.626;2023-02-28T19:38:40;6.70;99.90
8313;DHT22;4194;43.408;24.626;2023-02-28T19:41:08;6.10;99.90
8313;DHT22;4194;43.408;24.626;2023-02-28T19:43:34;5.60;99.90
8313;DHT22;4194;43.408;24.626;2023-02-28T19:48:27;5.00;99.90
8313;DHT22;4194;43.408;24.626;2023-02-28T19:51:01;5.30;99.90
8313;DHT22;4194;43.408;24.626;2023-02-28T19:53:29;5.30;99.90
8313;DHT22;4194;43.408;24.626;2023-02-28T19:55:55;6.10;99.90
8313;DHT22;4194;43.408;24.626;2023-02-28T19:58:21;6.30;99.90
8313;DHT22;4194;43.408;24.626;2023-02-28T20:00:47;6.00;99.90
8313;DHT22;4194;43.408;24.626;2023-02-28T20:03:13;5.10;99.90
8313;DHT22;4194;43.408;24.626;2023-02-28T20:05:39;5.70;99.90
8313;DHT22;4194;43.408;24.626;2023-02-28T20:08:05;5.20;99.90
8313;DHT22;4194;43.408;24.626;2023-02-28T20:10:32;6.00;99.90
8313;DHT22;4194;43.408;24.626;2023-02-28T20:12:58;6.30;99.90
8313;DHT22;4194;43.408;24.626;2023-02-28T20:15:24;6.60;99.90
8313;DHT22;4194;43.408;24.626;2023-02-28T20:22:41;5.40;99.90
8313;DHT22;4194;43.408;24.626;2023-02-28T20:25:07;6.10;99.90
8313;DHT22;4194;43.408;24.626;2023-02-28T20:27:36;6.30;99.90
8313;DHT22;4194;43.408;24.626;2023-02-28T20:32:28;5.60;99.90
8313;DHT22;4194;43.408;24.626;2023-02-28T20:34:53;6.20;99.90
8313;DHT22;4194;43.408;24.626;2023-02-28T20:37:20;5.40;99.90
8313;DHT22;4194;43.408;24.626;2023-02-28T20:39:45;5.50;99.90
8313;DHT22;4194;43.408;24.626;2023-02-28T20:42:12;6.10;99.90
8313;DHT22;4194;43.408;24.626;2023-02-28T20:44:38;5.80;99.90
8313;DHT22;4194;43.408;24.626;2023-02-28T20:47:04;4.90;99.90
8313;DHT22;4194;43.408;24.626;2023-02-28T20:51:56;4.80;99.90
8313;DHT22;4194;43.408;24.626;2023-02-28T20:54:21;4.30;99.90
8313;DHT22;4194;43.408;24.626;2023-02-28T20:59:13;5.80;99.90
8313;DHT22;4194;43.408;24.626;2023-02-28T21:01:39;6.10;99.90
8313;DHT22;4194;43.408;24.626;2023-02-28T21:04:07;4.30;99.90
8313;DHT22;4194;43.408;24.626;2023-02-28T21:06:38;5.20;99.90
8313;DHT22;4194;43.408;24.626;2023-02-28T21:09:08;4.40;99.90
8313;DHT22;4194;43.408;24.626;2023-02-28T21:11:36;5.60;99.90
8313;DHT22;4194;43.408;24.626;2023-02-28T21:14:08;5.90;99.90
8313;DHT22;4194;43.408;24.626;2023-02-28T21:16:35;5.70;99.90
8313;DHT22;4194;43.408;24.626;2023-02-28T21:19:01;6.90;99.90
8313;DHT22;4194;43.408;24.626;2023-02-28T21:24:00;6.30;99.90
8313;DHT22;4194;43.408;24.626;2023-02-28T21:26:26;5.60;99.90
8313;DHT22;4194;43.408;24.626;2023-02-28T21:33:46;6.20;99.90
8313;DHT22;4194;43.408;24.626;2023-02-28T21:36:13;6.30;99.90
8313;DHT22;4194;43.408;24.626;2023-02-28T21:38:40;4.90;99.90
8313;DHT22;4194;43.408;24.626;2023-02-28T21:46:17;5.40;99.90
8313;DHT22;4194;43.408;24.626;2023-02-28T21:51:15;5.20;99.90
8313;DHT22;4194;43.408;24.626;2023-02-28T21:56:21;5.20;99.90
8313;DHT22;4194;43.408;24.626;2023-02-28T22:01:19;5.90;99.90
8313;DHT22;4194;43.408;24.626;2023-02-28T22:03:47;5.30;99.90
8313;DHT22;4194;43.408;24.626;2023-02-28T22:06:19;5.10;99.90
8313;DHT22;4194;43.408;24.626;2023-02-28T22:08:49;6.20;99.90
8313;DHT22;4194;43.408;24.626;2023-02-28T22:11:16;6.10;99.90
8313;DHT22;4194;43.408;24.626;2023-02-28T22:13:42;6.20;99.90
8313;DHT22;4194;43.408;24.626;2023-02-28T22:16:14;5.40;99.90
8313;DHT22;4194;43.408;24.626;2023-02-28T22:23:35;5.00;99.90
8313;DHT22;4194;43.408;24.626;2023-02-28T22:28:28;4.40;99.90
8313;DHT22;4194;43.408;24.626;2023-02-28T22:33:25;5.00;99.90
8313;DHT22;4194;43.408;24.626;2023-02-28T22:35:52;6.10;99.90
8313;DHT22;4194;43.408;24.626;2023-02-28T22:38:18;5.90;99.90
8313;DHT22;4194;43.408;24.626;2023-02-28T22:40:44;5.60;99.90
8313;DHT22;4194;43.408;24.626;2023-02-28T22:45:37;6.30;99.90
8313;DHT22;4194;43.408;24.626;2023-02-28T22:48:04;5.80;99.90
8313;DHT22;4194;43.408;24.626;2023-02-28T22:50:31;6.00;99.90
8313;DHT22;4194;43.408;24.626;2023-02-28T22:55:23;5.30;99.90
8313;DHT22;4194;43.408;24.626;2023-02-28T22:57:49;6.20;99.90
8313;DHT22;4194;43.408;24.626;2023-02-28T23:00:15;5.60;99.90
8313;DHT22;4194;43.408;24.626;2023-02-28T23:02:42;6.30;99.90
8313;DHT22;4194;43.408;24.626;2023-02-28T23:07:34;6.30;99.90
8313;DHT22;4194;43.408;24.626;2023-02-28T23:12:29;5.10;99.90
8313;DHT22;4194;43.408;24.626;2023-02-28T23:14:55;4.80;99.90
8313;DHT22;4194;43.408;24.626;2023-02-28T23:24:38;5.20;99.90
8313;DHT22;4194;43.408;24.626;2023-02-28T23:29:31;4.90;99.90